sensor_id;sensor_type;location;lat;lon;timestamp;P1;durP1;ratioP1;P2;durP2;ratioP2
21825;SDS011;11075;47.944;11.776;2023-06-01T00:02:19;8.40;;;7.07;;
21825;SDS011;11075;47.944;11.776;2023-06-01T00:04:46;10.70;;;6.82;;
21825;SDS011;11075;47.944;11.776;2023-06-01T00:07:15;11.63;;;7.50;;
21825;SDS011;11075;47.944;11.776;2023-06-01T00:09:42;10.60;;;6.97;;
21825;SDS011;11075;47.944;11.776;2023-06-01T00:12:09;13.90;;;7.80;;
21825;SDS011;11075;47.944;11.776;2023-06-01T00:14:36;9.95;;;7.57;;
21825;SDS011;11075;47.944;11.776;2023-06-01T00:17:03;12.33;;;7.60;;
21825;SDS011;11075;47.944;11.776;2023-06-01T00:19:32;12.32;;;8.07;;
21825;SDS011;11075;47.944;11.776;2023-06-01T00:21:58;11.63;;;7.40;;
21825;SDS011;11075;47.944;11.776;2023-06-01T00:24:25;12.63;;;7.30;;
21825;SDS011;11075;47.944;11.776;2023-06-01T00:26:52;9.00;;;7.00;;
21825;SDS011;11075;47.944;11.776;2023-06-01T00:29:19;10.63;;;7.28;;
21825;SDS011;11075;47.944;11.776;2023-06-01T00:31:47;9.13;;;7.50;;
21825;SDS011;11075;47.944;11.776;2023-06-01T00:34:14;13.43;;;7.53;;
21825;SDS011;11075;47.944;11.776;2023-06-01T00:36:41;8.80;;;7.33;;
21825;SDS011;11075;47.944;11.776;2023-06-01T00:39:08;9.33;;;7.57;;
21825;SDS011;11075;47.944;11.776;2023-06-01T00:41:35;12.00;;;8.00;;
21825;SDS011;11075;47.944;11.776;2023-06-01T00:44:01;10.37;;;7.63;;
21825;SDS011;11075;47.944;11.776;2023-06-01T00:46:29;13.03;;;7.60;;
21825;SDS011;11075;47.944;11.776;2023-06-01T00:48:57;9.77;;;7.50;;
21825;SDS011;11075;47.944;11.776;2023-06-01T00:51:24;12.03;;;8.10;;
21825;SDS011;11075;47.944;11.776;2023-06-01T00:53:52;10.63;;;7.83;;
21825;SDS011;11075;47.944;11.776;2023-06-01T00:56:19;10.93;;;7.70;;
21825;SDS011;11075;47.944;11.776;2023-06-01T00:58:46;11.47;;;7.37;;
21825;SDS011;11075;47.944;11.776;2023-06-01T01:01:13;9.97;;;8.00;;
21825;SDS011;11075;47.944;11.776;2023-06-01T01:03:50;10.80;;;7.33;;
21825;SDS011;11075;47.944;11.776;2023-06-01T01:11:41;12.40;;;7.77;;
21825;SDS011;11075;47.944;11.776;2023-06-01T01:14:21;12.83;;;9.07;;
21825;SDS011;11075;47.944;11.776;2023-06-01T01:17:01;13.60;;;8.40;;
21825;SDS011;11075;47.944;11.776;2023-06-01T01:30:53;10.90;;;8.13;;
21825;SDS011;11075;47.944;11.776;2023-06-01T01:33:22;9.80;;;7.43;;
21825;SDS011;11075;47.944;11.776;2023-06-01T01:35:50;9.27;;;7.23;;
21825;SDS011;11075;47.944;11.776;2023-06-01T01:38:18;11.43;;;8.60;;
21825;SDS011;11075;47.944;11.776;2023-06-01T01:40:44;10.43;;;8.33;;
21825;SDS011;11075;47.944;11.776;2023-06-01T01:43:11;15.20;;;8.87;;
21825;SDS011;11075;47.944;11.776;2023-06-01T01:45:38;10.47;;;7.97;;
21825;SDS011;11075;47.944;11.776;2023-06-01T01:51:07;14.00;;;8.33;;
21825;SDS011;11075;47.944;11.776;2023-06-01T01:53:36;9.90;;;8.33;;
21825;SDS011;11075;47.944;11.776;2023-06-01T01:56:07;10.50;;;8.03;;
21825;SDS011;11075;47.944;11.776;2023-06-01T01:58:35;14.43;;;8.43;;
21825;SDS011;11075;47.944;11.776;2023-06-01T02:01:03;13.37;;;8.97;;
21825;SDS011;11075;47.944;11.776;2023-06-01T02:03:30;9.87;;;7.90;;
21825;SDS011;11075;47.944;11.776;2023-06-01T02:05:57;13.23;;;8.63;;
21825;SDS011;11075;47.944;11.776;2023-06-01T02:08:24;12.97;;;8.73;;
21825;SDS011;11075;47.944;11.776;2023-06-01T02:10:51;12.07;;;8.97;;
21825;SDS011;11075;47.944;11.776;2023-06-01T02:13:18;12.73;;;8.43;;
21825;SDS011;11075;47.944;11.776;2023-06-01T02:15:45;9.70;;;7.83;;
21825;SDS011;11075;47.944;11.776;2023-06-01T02:18:13;12.37;;;9.50;;
21825;SDS011;11075;47.944;11.776;2023-06-01T02:20:44;11.93;;;8.83;;
21825;SDS011;11075;47.944;11.776;2023-06-01T02:23:11;15.37;;;9.27;;
21825;SDS011;11075;47.944;11.776;2023-06-01T02:25:38;11.27;;;8.93;;
21825;SDS011;11075;47.944;11.776;2023-06-01T02:28:05;10.63;;;8.43;;
21825;SDS011;11075;47.944;11.776;2023-06-01T02:30:33;11.33;;;8.20;;
21825;SDS011;11075;47.944;11.776;2023-06-01T02:33:00;12.07;;;8.43;;
21825;SDS011;11075;47.944;11.776;2023-06-01T02:35:27;11.67;;;8.83;;
21825;SDS011;11075;47.944;11.776;2023-06-01T02:37:54;14.30;;;9.27;;
21825;SDS011;11075;47.944;11.776;2023-06-01T02:40:21;11.20;;;8.93;;
21825;SDS011;11075;47.944;11.776;2023-06-01T02:42:48;13.37;;;8.93;;
21825;SDS011;11075;47.944;11.776;2023-06-01T02:45:16;11.53;;;9.07;;
21825;SDS011;11075;47.944;11.776;2023-06-01T02:47:42;14.40;;;8.43;;
21825;SDS011;11075;47.944;11.776;2023-06-01T02:50:11;12.43;;;9.07;;
21825;SDS011;11075;47.944;11.776;2023-06-01T02:52:42;11.03;;;8.47;;
21825;SDS011;11075;47.944;11.776;2023-06-01T02:55:10;11.80;;;9.00;;
21825;SDS011;11075;47.944;11.776;2023-06-01T02:57:57;12.20;;;8.83;;
21825;SDS011;11075;47.944;11.776;2023-06-01T03:00:24;12.23;;;8.93;;
21825;SDS011;11075;47.944;11.776;2023-06-01T03:02:51;11.43;;;8.63;;
21825;SDS011;11075;47.944;11.776;2023-06-01T03:05:20;14.03;;;9.03;;
21825;SDS011;11075;47.944;11.776;2023-06-01T03:08:07;13.27;;;9.60;;
21825;SDS011;11075;47.944;11.776;2023-06-01T03:10:34;10.90;;;8.67;;
21825;SDS011;11075;47.944;11.776;2023-06-01T03:13:13;12.90;;;9.10;;
21825;SDS011;11075;47.944;11.776;2023-06-01T03:15:40;12.13;;;9.43;;
21825;SDS011;11075;47.944;11.776;2023-06-01T03:18:08;11.33;;;8.80;;
21825;SDS011;11075;47.944;11.776;2023-06-01T03:20:35;11.27;;;9.07;;
21825;SDS011;11075;47.944;11.776;2023-06-01T03:23:02;15.70;;;9.23;;
21825;SDS011;11075;47.944;11.776;2023-06-01T03:25:29;12.07;;;9.03;;
21825;SDS011;11075;47.944;11.776;2023-06-01T03:27:56;15.33;;;9.60;;
21825;SDS011;11075;47.944;11.776;2023-06-01T03:30:23;12.20;;;9.73;;
21825;SDS011;11075;47.944;11.776;2023-06-01T03:32:50;13.47;;;9.67;;
21825;SDS011;11075;47.944;11.776;2023-06-01T03:35:17;12.30;;;9.47;;
21825;SDS011;11075;47.944;11.776;2023-06-01T03:37:45;12.10;;;9.40;;
21825;SDS011;11075;47.944;11.776;2023-06-01T03:40:16;14.10;;;9.73;;
21825;SDS011;11075;47.944;11.776;2023-06-01T03:42:44;14.40;;;9.17;;
21825;SDS011;11075;47.944;11.776;2023-06-01T03:45:13;10.13;;;8.53;;
21825;SDS011;11075;47.944;11.776;2023-06-01T03:47:42;12.03;;;8.87;;
21825;SDS011;11075;47.944;11.776;2023-06-01T03:50:09;15.37;;;10.00;;
21825;SDS011;11075;47.944;11.776;2023-06-01T03:52:37;11.47;;;9.20;;
21825;SDS011;11075;47.944;11.776;2023-06-01T03:55:04;12.50;;;9.57;;
21825;SDS011;11075;47.944;11.776;2023-06-01T03:57:56;11.63;;;9.43;;
21825;SDS011;11075;47.944;11.776;2023-06-01T04:00:24;12.80;;;9.53;;
21825;SDS011;11075;47.944;11.776;2023-06-01T04:02:54;11.57;;;9.23;;
21825;SDS011;11075;47.944;11.776;2023-06-01T04:05:24;11.60;;;7.97;;
21825;SDS011;11075;47.944;11.776;2023-06-01T04:07:53;12.50;;;8.87;;
21825;SDS011;11075;47.944;11.776;2023-06-01T04:10:21;11.70;;;8.67;;
21825;SDS011;11075;47.944;11.776;2023-06-01T04:12:49;10.07;;;8.07;;
21825;SDS011;11075;47.944;11.776;2023-06-01T04:15:19;11.70;;;8.53;;
21825;SDS011;11075;47.944;11.776;2023-06-01T04:17:47;12.10;;;8.80;;
21825;SDS011;11075;47.944;11.776;2023-06-01T04:20:14;11.40;;;8.10;;
21825;SDS011;11075;47.944;11.776;2023-06-01T04:22:43;11.27;;;8.30;;
21825;SDS011;11075;47.944;11.776;2023-06-01T04:25:13;12.47;;;8.77;;
21825;SDS011;11075;47.944;11.776;2023-06-01T04:27:46;10.73;;;8.80;;
21825;SDS011;11075;47.944;11.776;2023-06-01T04:30:15;14.67;;;8.47;;
21825;SDS011;11075;47.944;11.776;2023-06-01T04:32:43;9.53;;;7.60;;
21825;SDS011;11075;47.944;11.776;2023-06-01T04:35:16;10.17;;;8.53;;
21825;SDS011;11075;47.944;11.776;2023-06-01T04:37:43;10.20;;;8.27;;
21825;SDS011;11075;47.944;11.776;2023-06-01T04:40:11;12.43;;;8.83;;
21825;SDS011;11075;47.944;11.776;2023-06-01T04:42:42;12.37;;;8.67;;
21825;SDS011;11075;47.944;11.776;2023-06-01T04:45:16;12.30;;;9.25;;
21825;SDS011;11075;47.944;11.776;2023-06-01T04:47:45;11.77;;;9.00;;
21825;SDS011;11075;47.944;11.776;2023-06-01T04:50:23;10.70;;;8.65;;
21825;SDS011;11075;47.944;11.776;2023-06-01T04:52:50;13.07;;;9.57;;
21825;SDS011;11075;47.944;11.776;2023-06-01T04:55:18;11.27;;;8.45;;
21825;SDS011;11075;47.944;11.776;2023-06-01T04:57:45;10.20;;;8.27;;
21825;SDS011;11075;47.944;11.776;2023-06-01T05:00:13;13.20;;;8.88;;
21825;SDS011;11075;47.944;11.776;2023-06-01T05:02:45;11.77;;;8.67;;
21825;SDS011;11075;47.944;11.776;2023-06-01T05:05:14;11.77;;;8.43;;
21825;SDS011;11075;47.944;11.776;2023-06-01T05:07:42;13.50;;;8.87;;
21825;SDS011;11075;47.944;11.776;2023-06-01T05:10:10;12.73;;;9.00;;
21825;SDS011;11075;47.944;11.776;2023-06-01T05:12:43;11.60;;;8.40;;
21825;SDS011;11075;47.944;11.776;2023-06-01T05:15:13;11.65;;;9.02;;
21825;SDS011;11075;47.944;11.776;2023-06-01T05:17:40;14.07;;;9.07;;
21825;SDS011;11075;47.944;11.776;2023-06-01T05:20:13;9.88;;;7.85;;
21825;SDS011;11075;47.944;11.776;2023-06-01T05:22:43;10.57;;;8.07;;
21825;SDS011;11075;47.944;11.776;2023-06-01T05:25:10;10.68;;;8.23;;
21825;SDS011;11075;47.944;11.776;2023-06-01T05:27:37;11.73;;;8.45;;
21825;SDS011;11075;47.944;11.776;2023-06-01T05:30:04;12.30;;;8.38;;
21825;SDS011;11075;47.944;11.776;2023-06-01T05:32:33;10.15;;;8.05;;
21825;SDS011;11075;47.944;11.776;2023-06-01T05:35:09;9.65;;;8.20;;
21825;SDS011;11075;47.944;11.776;2023-06-01T05:37:36;10.85;;;8.30;;
21825;SDS011;11075;47.944;11.776;2023-06-01T05:40:03;11.45;;;7.93;;
21825;SDS011;11075;47.944;11.776;2023-06-01T05:42:34;10.77;;;7.68;;
21825;SDS011;11075;47.944;11.776;2023-06-01T05:45:01;11.48;;;7.70;;
21825;SDS011;11075;47.944;11.776;2023-06-01T05:47:28;9.55;;;7.10;;
21825;SDS011;11075;47.944;11.776;2023-06-01T05:49:55;10.30;;;8.32;;
21825;SDS011;11075;47.944;11.776;2023-06-01T05:52:22;10.45;;;7.20;;
21825;SDS011;11075;47.944;11.776;2023-06-01T05:54:49;12.85;;;8.00;;
21825;SDS011;11075;47.944;11.776;2023-06-01T05:57:17;12.18;;;7.88;;
21825;SDS011;11075;47.944;11.776;2023-06-01T05:59:44;12.05;;;7.75;;
21825;SDS011;11075;47.944;11.776;2023-06-01T06:02:15;11.95;;;7.63;;
21825;SDS011;11075;47.944;11.776;2023-06-01T06:04:43;12.02;;;7.95;;
21825;SDS011;11075;47.944;11.776;2023-06-01T06:07:10;10.43;;;8.18;;
21825;SDS011;11075;47.944;11.776;2023-06-01T06:09:37;12.48;;;7.75;;
21825;SDS011;11075;47.944;11.776;2023-06-01T06:12:04;13.00;;;7.75;;
21825;SDS011;11075;47.944;11.776;2023-06-01T06:14:32;10.73;;;7.25;;
21825;SDS011;11075;47.944;11.776;2023-06-01T06:17:00;13.38;;;7.88;;
21825;SDS011;11075;47.944;11.776;2023-06-01T06:19:27;9.90;;;7.45;;
21825;SDS011;11075;47.944;11.776;2023-06-01T06:21:53;9.10;;;7.22;;
21825;SDS011;11075;47.944;11.776;2023-06-01T06:24:20;9.80;;;7.35;;
21825;SDS011;11075;47.944;11.776;2023-06-01T06:26:48;13.52;;;7.80;;
21825;SDS011;11075;47.944;11.776;2023-06-01T06:29:15;8.40;;;6.72;;
21825;SDS011;11075;47.944;11.776;2023-06-01T06:31:42;11.73;;;7.70;;
21825;SDS011;11075;47.944;11.776;2023-06-01T06:34:11;11.13;;;7.78;;
21825;SDS011;11075;47.944;11.776;2023-06-01T06:36:38;9.88;;;7.65;;
21825;SDS011;11075;47.944;11.776;2023-06-01T06:39:05;13.50;;;7.20;;
21825;SDS011;11075;47.944;11.776;2023-06-01T06:41:32;9.10;;;6.80;;
21825;SDS011;11075;47.944;11.776;2023-06-01T06:43:58;9.38;;;7.15;;
21825;SDS011;11075;47.944;11.776;2023-06-01T06:46:25;11.65;;;7.80;;
21825;SDS011;11075;47.944;11.776;2023-06-01T06:48:52;8.95;;;7.30;;
21825;SDS011;11075;47.944;11.776;2023-06-01T06:51:19;11.18;;;6.93;;
21825;SDS011;11075;47.944;11.776;2023-06-01T06:53:46;9.30;;;7.18;;
21825;SDS011;11075;47.944;11.776;2023-06-01T06:56:13;11.65;;;7.28;;
21825;SDS011;11075;47.944;11.776;2023-06-01T06:58:39;13.10;;;7.20;;
21825;SDS011;11075;47.944;11.776;2023-06-01T07:01:06;13.07;;;6.85;;
21825;SDS011;11075;47.944;11.776;2023-06-01T07:03:33;9.05;;;6.35;;
21825;SDS011;11075;47.944;11.776;2023-06-01T07:06:00;7.22;;;6.07;;
21825;SDS011;11075;47.944;11.776;2023-06-01T07:08:27;10.40;;;5.70;;
21825;SDS011;11075;47.944;11.776;2023-06-01T07:10:54;9.98;;;7.10;;
21825;SDS011;11075;47.944;11.776;2023-06-01T07:13:22;9.45;;;7.07;;
21825;SDS011;11075;47.944;11.776;2023-06-01T07:15:49;10.48;;;6.78;;
21825;SDS011;11075;47.944;11.776;2023-06-01T07:18:16;13.10;;;7.00;;
21825;SDS011;11075;47.944;11.776;2023-06-01T07:20:43;8.13;;;6.60;;
21825;SDS011;11075;47.944;11.776;2023-06-01T07:23:10;11.20;;;6.70;;
21825;SDS011;11075;47.944;11.776;2023-06-01T07:25:38;8.00;;;6.07;;
21825;SDS011;11075;47.944;11.776;2023-06-01T07:28:05;8.00;;;6.05;;
21825;SDS011;11075;47.944;11.776;2023-06-01T07:30:34;11.20;;;6.20;;
21825;SDS011;11075;47.944;11.776;2023-06-01T07:33:01;10.32;;;5.20;;
21825;SDS011;11075;47.944;11.776;2023-06-01T07:35:31;9.65;;;5.85;;
21825;SDS011;11075;47.944;11.776;2023-06-01T07:37:59;10.60;;;6.55;;
21825;SDS011;11075;47.944;11.776;2023-06-01T07:40:27;8.75;;;6.10;;
21825;SDS011;11075;47.944;11.776;2023-06-01T07:42:54;6.88;;;5.22;;
21825;SDS011;11075;47.944;11.776;2023-06-01T07:45:21;8.02;;;5.82;;
21825;SDS011;11075;47.944;11.776;2023-06-01T07:47:48;6.45;;;4.95;;
21825;SDS011;11075;47.944;11.776;2023-06-01T07:50:15;12.40;;;5.88;;
21825;SDS011;11075;47.944;11.776;2023-06-01T07:52:42;7.20;;;5.65;;
21825;SDS011;11075;47.944;11.776;2023-06-01T07:55:09;6.20;;;5.10;;
21825;SDS011;11075;47.944;11.776;2023-06-01T07:57:36;8.75;;;5.68;;
21825;SDS011;11075;47.944;11.776;2023-06-01T08:00:03;10.73;;;5.25;;
21825;SDS011;11075;47.944;11.776;2023-06-01T08:02:36;12.77;;;5.97;;
21825;SDS011;11075;47.944;11.776;2023-06-01T08:05:03;7.05;;;5.18;;
21825;SDS011;11075;47.944;11.776;2023-06-01T08:07:31;7.72;;;5.38;;
21825;SDS011;11075;47.944;11.776;2023-06-01T08:09:58;8.30;;;5.50;;
21825;SDS011;11075;47.944;11.776;2023-06-01T08:12:25;11.10;;;5.55;;
21825;SDS011;11075;47.944;11.776;2023-06-01T08:14:52;8.82;;;5.93;;
21825;SDS011;11075;47.944;11.776;2023-06-01T08:17:19;6.70;;;5.10;;
21825;SDS011;11075;47.944;11.776;2023-06-01T08:19:47;12.82;;;5.85;;
21825;SDS011;11075;47.944;11.776;2023-06-01T08:22:14;8.65;;;5.82;;
21825;SDS011;11075;47.944;11.776;2023-06-01T08:24:41;9.10;;;6.07;;
21825;SDS011;11075;47.944;11.776;2023-06-01T08:27:18;13.48;;;5.50;;
21825;SDS011;11075;47.944;11.776;2023-06-01T08:29:50;10.02;;;5.85;;
21825;SDS011;11075;47.944;11.776;2023-06-01T08:32:20;6.65;;;5.55;;
21825;SDS011;11075;47.944;11.776;2023-06-01T08:34:48;8.45;;;5.85;;
21825;SDS011;11075;47.944;11.776;2023-06-01T08:37:15;7.50;;;5.75;;
21825;SDS011;11075;47.944;11.776;2023-06-01T08:39:42;11.43;;;6.00;;
21825;SDS011;11075;47.944;11.776;2023-06-01T08:42:20;11.43;;;5.88;;
21825;SDS011;11075;47.944;11.776;2023-06-01T08:45:00;7.18;;;6.30;;
21825;SDS011;11075;47.944;11.776;2023-06-01T08:47:31;8.77;;;5.75;;
21825;SDS011;11075;47.944;11.776;2023-06-01T08:49:58;8.40;;;5.93;;
21825;SDS011;11075;47.944;11.776;2023-06-01T08:52:26;9.05;;;5.90;;
21825;SDS011;11075;47.944;11.776;2023-06-01T08:54:58;8.77;;;5.60;;
21825;SDS011;11075;47.944;11.776;2023-06-01T08:57:27;7.20;;;5.20;;
21825;SDS011;11075;47.944;11.776;2023-06-01T08:59:54;8.60;;;5.43;;
21825;SDS011;11075;47.944;11.776;2023-06-01T09:02:21;6.43;;;5.28;;
21825;SDS011;11075;47.944;11.776;2023-06-01T09:04:49;7.57;;;5.10;;
21825;SDS011;11075;47.944;11.776;2023-06-01T09:07:16;6.55;;;5.30;;
21825;SDS011;11075;47.944;11.776;2023-06-01T09:09:43;8.95;;;5.32;;
21825;SDS011;11075;47.944;11.776;2023-06-01T09:12:30;8.23;;;5.68;;
21825;SDS011;11075;47.944;11.776;2023-06-01T09:15:10;7.45;;;5.38;;
21825;SDS011;11075;47.944;11.776;2023-06-01T09:17:39;9.27;;;6.18;;
21825;SDS011;11075;47.944;11.776;2023-06-01T09:20:11;8.57;;;5.50;;
21825;SDS011;11075;47.944;11.776;2023-06-01T09:22:42;8.60;;;5.70;;
21825;SDS011;11075;47.944;11.776;2023-06-01T09:25:10;7.97;;;5.00;;
21825;SDS011;11075;47.944;11.776;2023-06-01T09:27:50;6.43;;;4.65;;
21825;SDS011;11075;47.944;11.776;2023-06-01T09:30:19;9.02;;;4.72;;
21825;SDS011;11075;47.944;11.776;2023-06-01T09:32:47;6.20;;;4.90;;
21825;SDS011;11075;47.944;11.776;2023-06-01T09:35:51;8.60;;;5.13;;
21825;SDS011;11075;47.944;11.776;2023-06-01T09:38:12;6.47;;;4.78;;
21825;SDS011;11075;47.944;11.776;2023-06-01T09:40:58;6.97;;;4.97;;
21825;SDS011;11075;47.944;11.776;2023-06-01T09:43:26;7.90;;;4.50;;
21825;SDS011;11075;47.944;11.776;2023-06-01T09:46:03;6.72;;;5.18;;
21825;SDS011;11075;47.944;11.776;2023-06-01T09:48:31;5.80;;;4.50;;
21825;SDS011;11075;47.944;11.776;2023-06-01T09:50:58;8.02;;;4.70;;
21825;SDS011;11075;47.944;11.776;2023-06-01T09:53:28;9.93;;;4.35;;
21825;SDS011;11075;47.944;11.776;2023-06-01T09:56:05;7.93;;;5.20;;
21825;SDS011;11075;47.944;11.776;2023-06-01T09:58:33;7.38;;;4.78;;
21825;SDS011;11075;47.944;11.776;2023-06-01T10:01:05;8.73;;;4.75;;
21825;SDS011;11075;47.944;11.776;2023-06-01T10:03:37;8.13;;;5.80;;
21825;SDS011;11075;47.944;11.776;2023-06-01T10:06:11;9.13;;;5.65;;
21825;SDS011;11075;47.944;11.776;2023-06-01T10:08:39;8.35;;;5.40;;
21825;SDS011;11075;47.944;11.776;2023-06-01T10:11:07;9.18;;;5.07;;
21825;SDS011;11075;47.944;11.776;2023-06-01T10:13:35;12.55;;;5.25;;
21825;SDS011;11075;47.944;11.776;2023-06-01T10:16:02;6.80;;;4.65;;
21825;SDS011;11075;47.944;11.776;2023-06-01T10:18:31;7.28;;;5.05;;
21825;SDS011;11075;47.944;11.776;2023-06-01T10:20:59;6.78;;;4.93;;
21825;SDS011;11075;47.944;11.776;2023-06-01T10:23:27;6.85;;;4.70;;
21825;SDS011;11075;47.944;11.776;2023-06-01T10:25:57;9.43;;;5.13;;
21825;SDS011;11075;47.944;11.776;2023-06-01T10:28:27;11.77;;;5.63;;
21825;SDS011;11075;47.944;11.776;2023-06-01T10:33:59;9.27;;;5.00;;
21825;SDS011;11075;47.944;11.776;2023-06-01T10:37:09;9.75;;;5.53;;
21825;SDS011;11075;47.944;11.776;2023-06-01T10:39:30;6.53;;;5.47;;
21825;SDS011;11075;47.944;11.776;2023-06-01T10:44:46;7.90;;;4.75;;
21825;SDS011;11075;47.944;11.776;2023-06-01T10:54:53;7.55;;;5.47;;
21825;SDS011;11075;47.944;11.776;2023-06-01T10:57:22;7.38;;;5.15;;
21825;SDS011;11075;47.944;11.776;2023-06-01T11:02:54;6.53;;;4.85;;
21825;SDS011;11075;47.944;11.776;2023-06-01T11:05:43;9.45;;;5.07;;
21825;SDS011;11075;47.944;11.776;2023-06-01T11:13:20;7.28;;;5.32;;
21825;SDS011;11075;47.944;11.776;2023-06-01T11:21:11;9.55;;;4.75;;
21825;SDS011;11075;47.944;11.776;2023-06-01T11:23:48;6.28;;;4.63;;
21825;SDS011;11075;47.944;11.776;2023-06-01T11:26:17;7.25;;;4.82;;
21825;SDS011;11075;47.944;11.776;2023-06-01T11:28:45;7.32;;;4.90;;
21825;SDS011;11075;47.944;11.776;2023-06-01T11:31:14;11.98;;;4.72;;
21825;SDS011;11075;47.944;11.776;2023-06-01T11:33:52;5.90;;;4.72;;
21825;SDS011;11075;47.944;11.776;2023-06-01T11:36:20;6.40;;;4.80;;
21825;SDS011;11075;47.944;11.776;2023-06-01T11:38:50;4.68;;;4.18;;
21825;SDS011;11075;47.944;11.776;2023-06-01T11:41:21;7.30;;;4.97;;
21825;SDS011;11075;47.944;11.776;2023-06-01T11:43:54;7.03;;;4.75;;
21825;SDS011;11075;47.944;11.776;2023-06-01T11:46:22;5.50;;;4.40;;
21825;SDS011;11075;47.944;11.776;2023-06-01T11:49:03;7.20;;;4.22;;
21825;SDS011;11075;47.944;11.776;2023-06-01T11:51:40;6.25;;;4.38;;
21825;SDS011;11075;47.944;11.776;2023-06-01T11:54:08;6.05;;;4.60;;
21825;SDS011;11075;47.944;11.776;2023-06-01T11:56:35;7.13;;;4.85;;
21825;SDS011;11075;47.944;11.776;2023-06-01T11:59:05;6.35;;;4.43;;
21825;SDS011;11075;47.944;11.776;2023-06-01T12:01:41;6.85;;;4.78;;
21825;SDS011;11075;47.944;11.776;2023-06-01T12:04:16;6.35;;;4.47;;
21825;SDS011;11075;47.944;11.776;2023-06-01T12:06:44;6.35;;;4.72;;
21825;SDS011;11075;47.944;11.776;2023-06-01T12:09:12;7.30;;;4.80;;
21825;SDS011;11075;47.944;11.776;2023-06-01T12:11:42;6.70;;;4.47;;
21825;SDS011;11075;47.944;11.776;2023-06-01T12:14:11;7.38;;;4.43;;
21825;SDS011;11075;47.944;11.776;2023-06-01T12:19:27;7.22;;;4.32;;
21825;SDS011;11075;47.944;11.776;2023-06-01T12:21:55;5.82;;;4.38;;
21825;SDS011;11075;47.944;11.776;2023-06-01T12:24:30;5.53;;;4.90;;
21825;SDS011;11075;47.944;11.776;2023-06-01T12:27:00;7.93;;;5.05;;
21825;SDS011;11075;47.944;11.776;2023-06-01T12:29:34;7.72;;;4.68;;
21825;SDS011;11075;47.944;11.776;2023-06-01T12:32:04;7.03;;;4.28;;
21825;SDS011;11075;47.944;11.776;2023-06-01T12:34:32;6.38;;;4.35;;
21825;SDS011;11075;47.944;11.776;2023-06-01T12:36:58;6.85;;;4.18;;
21825;SDS011;11075;47.944;11.776;2023-06-01T12:39:32;8.55;;;4.93;;
21825;SDS011;11075;47.944;11.776;2023-06-01T12:42:03;8.63;;;5.03;;
21825;SDS011;11075;47.944;11.776;2023-06-01T12:44:33;5.93;;;4.70;;
21825;SDS011;11075;47.944;11.776;2023-06-01T12:47:00;8.13;;;4.82;;
21825;SDS011;11075;47.944;11.776;2023-06-01T12:49:27;6.88;;;4.60;;
21825;SDS011;11075;47.944;11.776;2023-06-01T12:51:55;5.95;;;4.60;;
21825;SDS011;11075;47.944;11.776;2023-06-01T12:54:22;5.25;;;4.75;;
21825;SDS011;11075;47.944;11.776;2023-06-01T12:56:50;5.70;;;4.43;;
21825;SDS011;11075;47.944;11.776;2023-06-01T12:59:17;7.72;;;5.25;;
21825;SDS011;11075;47.944;11.776;2023-06-01T13:01:44;7.88;;;5.25;;
21825;SDS011;11075;47.944;11.776;2023-06-01T13:04:11;7.35;;;4.90;;
21825;SDS011;11075;47.944;11.776;2023-06-01T13:06:38;6.70;;;4.85;;
21825;SDS011;11075;47.944;11.776;2023-06-01T13:09:05;8.25;;;4.88;;
21825;SDS011;11075;47.944;11.776;2023-06-01T13:11:33;7.82;;;4.43;;
21825;SDS011;11075;47.944;11.776;2023-06-01T13:14:00;7.78;;;4.50;;
21825;SDS011;11075;47.944;11.776;2023-06-01T13:16:28;8.25;;;4.40;;
21825;SDS011;11075;47.944;11.776;2023-06-01T13:18:55;9.90;;;5.00;;
21825;SDS011;11075;47.944;11.776;2023-06-01T13:21:22;9.50;;;4.90;;
21825;SDS011;11075;47.944;11.776;2023-06-01T13:23:49;6.10;;;3.95;;
21825;SDS011;11075;47.944;11.776;2023-06-01T13:26:15;5.85;;;5.00;;
21825;SDS011;11075;47.944;11.776;2023-06-01T13:28:42;5.47;;;4.40;;
21825;SDS011;11075;47.944;11.776;2023-06-01T13:31:09;8.95;;;4.97;;
21825;SDS011;11075;47.944;11.776;2023-06-01T13:33:36;7.50;;;4.78;;
21825;SDS011;11075;47.944;11.776;2023-06-01T13:36:03;4.90;;;4.40;;
21825;SDS011;11075;47.944;11.776;2023-06-01T13:38:31;5.07;;;4.43;;
21825;SDS011;11075;47.944;11.776;2023-06-01T13:40:58;8.20;;;5.15;;
21825;SDS011;11075;47.944;11.776;2023-06-01T13:43:26;9.00;;;5.25;;
21825;SDS011;11075;47.944;11.776;2023-06-01T13:45:53;6.57;;;4.40;;
21825;SDS011;11075;47.944;11.776;2023-06-01T13:48:20;7.10;;;4.32;;
21825;SDS011;11075;47.944;11.776;2023-06-01T13:50:47;6.78;;;5.05;;
21825;SDS011;11075;47.944;11.776;2023-06-01T13:53:14;6.30;;;4.32;;
21825;SDS011;11075;47.944;11.776;2023-06-01T13:55:41;7.75;;;4.80;;
21825;SDS011;11075;47.944;11.776;2023-06-01T13:58:08;6.95;;;4.45;;
21825;SDS011;11075;47.944;11.776;2023-06-01T14:00:34;6.35;;;4.13;;
21825;SDS011;11075;47.944;11.776;2023-06-01T14:03:02;6.10;;;4.70;;
21825;SDS011;11075;47.944;11.776;2023-06-01T14:05:29;5.95;;;4.65;;
21825;SDS011;11075;47.944;11.776;2023-06-01T14:08:15;9.07;;;5.55;;
21825;SDS011;11075;47.944;11.776;2023-06-01T14:10:42;8.93;;;5.25;;
21825;SDS011;11075;47.944;11.776;2023-06-01T14:13:10;5.35;;;4.15;;
21825;SDS011;11075;47.944;11.776;2023-06-01T14:15:37;7.50;;;4.70;;
21825;SDS011;11075;47.944;11.776;2023-06-01T14:18:04;8.75;;;5.30;;
21825;SDS011;11075;47.944;11.776;2023-06-01T14:20:32;7.70;;;4.90;;
21825;SDS011;11075;47.944;11.776;2023-06-01T14:23:01;6.45;;;4.97;;
21825;SDS011;11075;47.944;11.776;2023-06-01T14:25:29;10.63;;;5.05;;
21825;SDS011;11075;47.944;11.776;2023-06-01T14:27:56;10.15;;;5.25;;
21825;SDS011;11075;47.944;11.776;2023-06-01T14:30:23;8.15;;;5.10;;
21825;SDS011;11075;47.944;11.776;2023-06-01T14:32:50;9.13;;;5.00;;
21825;SDS011;11075;47.944;11.776;2023-06-01T14:35:17;5.85;;;4.30;;
21825;SDS011;11075;47.944;11.776;2023-06-01T14:37:45;7.63;;;4.88;;
21825;SDS011;11075;47.944;11.776;2023-06-01T14:40:15;10.60;;;5.18;;
21825;SDS011;11075;47.944;11.776;2023-06-01T14:42:42;5.55;;;4.55;;
21825;SDS011;11075;47.944;11.776;2023-06-01T14:45:09;6.35;;;4.25;;
21825;SDS011;11075;47.944;11.776;2023-06-01T14:47:37;6.85;;;4.68;;
21825;SDS011;11075;47.944;11.776;2023-06-01T14:50:08;8.63;;;4.80;;
21825;SDS011;11075;47.944;11.776;2023-06-01T14:52:35;5.43;;;4.47;;
21825;SDS011;11075;47.944;11.776;2023-06-01T14:55:02;10.50;;;3.80;;
21825;SDS011;11075;47.944;11.776;2023-06-01T14:57:29;11.55;;;4.50;;
21825;SDS011;11075;47.944;11.776;2023-06-01T14:59:56;7.63;;;4.15;;
21825;SDS011;11075;47.944;11.776;2023-06-01T15:02:30;6.07;;;4.72;;
21825;SDS011;11075;47.944;11.776;2023-06-01T15:04:59;7.30;;;4.45;;
21825;SDS011;11075;47.944;11.776;2023-06-01T15:07:26;8.95;;;3.85;;
21825;SDS011;11075;47.944;11.776;2023-06-01T15:09:53;5.53;;;4.03;;
21825;SDS011;11075;47.944;11.776;2023-06-01T15:12:20;5.82;;;4.43;;
21825;SDS011;11075;47.944;11.776;2023-06-01T15:14:47;8.10;;;4.53;;
21825;SDS011;11075;47.944;11.776;2023-06-01T15:17:14;7.20;;;4.20;;
21825;SDS011;11075;47.944;11.776;2023-06-01T15:19:42;6.35;;;4.15;;
21825;SDS011;11075;47.944;11.776;2023-06-01T15:22:09;7.50;;;4.57;;
21825;SDS011;11075;47.944;11.776;2023-06-01T15:24:35;7.72;;;4.50;;
21825;SDS011;11075;47.944;11.776;2023-06-01T15:27:04;5.78;;;4.30;;
21825;SDS011;11075;47.944;11.776;2023-06-01T15:29:32;5.28;;;4.00;;